sensor_id;sensor_type;location;lat;lon;timestamp;P1;durP1;ratioP1;P2;durP2;ratioP2
45011;SDS011;63444;48.148;11.542;2023-02-10T00:02:24;18.30;;;13.43;;
45011;SDS011;63444;48.148;11.542;2023-02-10T00:04:50;20.73;;;13.17;;
45011;SDS011;63444;48.148;11.542;2023-02-10T00:07:18;20.77;;;13.47;;
45011;SDS011;63444;48.148;11.542;2023-02-10T00:09:44;17.97;;;13.57;;
45011;SDS011;63444;48.148;11.542;2023-02-10T00:12:09;17.60;;;12.60;;
45011;SDS011;63444;48.148;11.542;2023-02-10T00:14:36;19.13;;;14.00;;
45011;SDS011;63444;48.148;11.542;2023-02-10T00:17:02;19.03;;;13.60;;
45011;SDS011;63444;48.148;11.542;2023-02-10T00:19:28;19.03;;;13.83;;
45011;SDS011;63444;48.148;11.542;2023-02-10T00:21:56;18.13;;;12.40;;
45011;SDS011;63444;48.148;11.542;2023-02-10T00:24:22;20.60;;;13.70;;
45011;SDS011;63444;48.148;11.542;2023-02-10T00:26:48;17.77;;;12.97;;
45011;SDS011;63444;48.148;11.542;2023-02-10T00:29:15;22.17;;;14.53;;
45011;SDS011;63444;48.148;11.542;2023-02-10T00:31:41;21.67;;;14.33;;
45011;SDS011;63444;48.148;11.542;2023-02-10T00:34:09;21.03;;;13.73;;
45011;SDS011;63444;48.148;11.542;2023-02-10T00:36:36;18.37;;;13.97;;
45011;SDS011;63444;48.148;11.542;2023-02-10T00:39:02;22.00;;;13.10;;
45011;SDS011;63444;48.148;11.542;2023-02-10T00:41:29;18.83;;;13.73;;
45011;SDS011;63444;48.148;11.542;2023-02-10T00:43:54;16.50;;;12.00;;
45011;SDS011;63444;48.148;11.542;2023-02-10T00:46:20;17.80;;;13.03;;
45011;SDS011;63444;48.148;11.542;2023-02-10T00:48:48;21.07;;;13.67;;
45011;SDS011;63444;48.148;11.542;2023-02-10T00:51:14;18.50;;;13.30;;
45011;SDS011;63444;48.148;11.542;2023-02-10T00:53:40;19.13;;;13.63;;
45011;SDS011;63444;48.148;11.542;2023-02-10T00:56:06;18.27;;;13.00;;
45011;SDS011;63444;48.148;11.542;2023-02-10T00:58:32;19.83;;;13.47;;
45011;SDS011;63444;48.148;11.542;2023-02-10T01:00:58;18.00;;;12.63;;
45011;SDS011;63444;48.148;11.542;2023-02-10T01:03:24;18.23;;;12.83;;
45011;SDS011;63444;48.148;11.542;2023-02-10T01:05:50;20.10;;;13.07;;
45011;SDS011;63444;48.148;11.542;2023-02-10T01:08:15;18.97;;;13.73;;
45011;SDS011;63444;48.148;11.542;2023-02-10T01:10:41;20.30;;;13.93;;
45011;SDS011;63444;48.148;11.542;2023-02-10T01:13:08;20.53;;;13.33;;
45011;SDS011;63444;48.148;11.542;2023-02-10T01:15:34;17.47;;;13.10;;
45011;SDS011;63444;48.148;11.542;2023-02-10T01:18:00;15.40;;;12.27;;
45011;SDS011;63444;48.148;11.542;2023-02-10T01:20:26;19.17;;;13.83;;
45011;SDS011;63444;48.148;11.542;2023-02-10T01:22:52;20.60;;;13.90;;
45011;SDS011;63444;48.148;11.542;2023-02-10T01:25:18;17.33;;;13.07;;
45011;SDS011;63444;48.148;11.542;2023-02-10T01:27:45;17.37;;;12.93;;
45011;SDS011;63444;48.148;11.542;2023-02-10T01:30:12;20.67;;;13.27;;
45011;SDS011;63444;48.148;11.542;2023-02-10T01:32:38;18.60;;;13.30;;
45011;SDS011;63444;48.148;11.542;2023-02-10T01:35:05;21.13;;;13.20;;
45011;SDS011;63444;48.148;11.542;2023-02-10T01:37:30;21.50;;;13.40;;
45011;SDS011;63444;48.148;11.542;2023-02-10T01:39:57;18.00;;;13.30;;
45011;SDS011;63444;48.148;11.542;2023-02-10T01:42:23;20.90;;;13.87;;
45011;SDS011;63444;48.148;11.542;2023-02-10T01:47:14;19.07;;;13.13;;
45011;SDS011;63444;48.148;11.542;2023-02-10T01:49:41;19.10;;;14.03;;
45011;SDS011;63444;48.148;11.542;2023-02-10T01:52:18;19.33;;;12.60;;
45011;SDS011;63444;48.148;11.542;2023-02-10T01:55:05;19.83;;;14.57;;
45011;SDS011;63444;48.148;11.542;2023-02-10T01:57:34;19.13;;;13.30;;
45011;SDS011;63444;48.148;11.542;2023-02-10T02:00:03;19.50;;;14.17;;
45011;SDS011;63444;48.148;11.542;2023-02-10T02:02:29;19.27;;;13.37;;
45011;SDS011;63444;48.148;11.542;2023-02-10T02:05:00;17.83;;;13.43;;
45011;SDS011;63444;48.148;11.542;2023-02-10T02:07:28;16.97;;;12.20;;
45011;SDS011;63444;48.148;11.542;2023-02-10T02:09:57;15.93;;;12.47;;
45011;SDS011;63444;48.148;11.542;2023-02-10T02:12:39;17.70;;;12.97;;
45011;SDS011;63444;48.148;11.542;2023-02-10T02:18:12;18.27;;;13.60;;
45011;SDS011;63444;48.148;11.542;2023-02-10T02:32:15;19.33;;;14.00;;
45011;SDS011;63444;48.148;11.542;2023-02-10T02:34:46;17.37;;;13.50;;
45011;SDS011;63444;48.148;11.542;2023-02-10T02:37:26;18.20;;;13.30;;
45011;SDS011;63444;48.148;11.542;2023-02-10T02:39:55;20.67;;;13.43;;
45011;SDS011;63444;48.148;11.542;2023-02-10T02:42:26;18.00;;;13.53;;
45011;SDS011;63444;48.148;11.542;2023-02-10T02:45:04;19.93;;;14.00;;
45011;SDS011;63444;48.148;11.542;2023-02-10T02:47:41;18.50;;;14.17;;
45011;SDS011;63444;48.148;11.542;2023-02-10T02:53:01;21.17;;;14.03;;
45011;SDS011;63444;48.148;11.542;2023-02-10T02:55:39;20.13;;;13.50;;
45011;SDS011;63444;48.148;11.542;2023-02-10T02:58:32;19.77;;;14.50;;
45011;SDS011;63444;48.148;11.542;2023-02-10T03:01:00;18.67;;;12.73;;
45011;SDS011;63444;48.148;11.542;2023-02-10T03:03:35;21.73;;;14.10;;
45011;SDS011;63444;48.148;11.542;2023-02-10T03:06:01;19.93;;;13.97;;
45011;SDS011;63444;48.148;11.542;2023-02-10T03:08:31;20.20;;;14.30;;
45011;SDS011;63444;48.148;11.542;2023-02-10T03:10:59;17.67;;;13.43;;
45011;SDS011;63444;48.148;11.542;2023-02-10T03:13:24;19.70;;;13.63;;
45011;SDS011;63444;48.148;11.542;2023-02-10T03:15:50;20.17;;;13.17;;
45011;SDS011;63444;48.148;11.542;2023-02-10T03:18:17;19.77;;;13.53;;
45011;SDS011;63444;48.148;11.542;2023-02-10T03:20:43;20.07;;;13.83;;
45011;SDS011;63444;48.148;11.542;2023-02-10T03:23:09;20.50;;;13.67;;
45011;SDS011;63444;48.148;11.542;2023-02-10T03:25:34;21.10;;;13.43;;
45011;SDS011;63444;48.148;11.542;2023-02-10T03:28:00;19.70;;;12.93;;
45011;SDS011;63444;48.148;11.542;2023-02-10T03:30:26;18.57;;;13.07;;
45011;SDS011;63444;48.148;11.542;2023-02-10T03:32:51;16.80;;;12.77;;
45011;SDS011;63444;48.148;11.542;2023-02-10T03:35:18;23.00;;;12.67;;
45011;SDS011;63444;48.148;11.542;2023-02-10T03:37:44;18.77;;;12.80;;
45011;SDS011;63444;48.148;11.542;2023-02-10T03:40:10;19.20;;;13.20;;
45011;SDS011;63444;48.148;11.542;2023-02-10T03:42:37;16.77;;;12.53;;
45011;SDS011;63444;48.148;11.542;2023-02-10T03:45:02;18.10;;;12.67;;
45011;SDS011;63444;48.148;11.542;2023-02-10T03:47:29;17.43;;;12.27;;
45011;SDS011;63444;48.148;11.542;2023-02-10T03:49:55;19.97;;;13.13;;
45011;SDS011;63444;48.148;11.542;2023-02-10T03:52:21;15.97;;;11.80;;
45011;SDS011;63444;48.148;11.542;2023-02-10T03:54:46;16.67;;;11.63;;
45011;SDS011;63444;48.148;11.542;2023-02-10T03:57:13;18.87;;;12.60;;
45011;SDS011;63444;48.148;11.542;2023-02-10T03:59:38;17.20;;;12.40;;
45011;SDS011;63444;48.148;11.542;2023-02-10T04:02:04;16.83;;;11.67;;
45011;SDS011;63444;48.148;11.542;2023-02-10T04:04:30;16.77;;;12.47;;
45011;SDS011;63444;48.148;11.542;2023-02-10T04:06:55;18.97;;;12.17;;
45011;SDS011;63444;48.148;11.542;2023-02-10T04:09:21;18.83;;;11.97;;
45011;SDS011;63444;48.148;11.542;2023-02-10T04:11:46;20.70;;;13.40;;
45011;SDS011;63444;48.148;11.542;2023-02-10T04:14:13;20.13;;;12.90;;
45011;SDS011;63444;48.148;11.542;2023-02-10T04:16:39;20.77;;;13.17;;
45011;SDS011;63444;48.148;11.542;2023-02-10T04:19:04;17.57;;;12.57;;
45011;SDS011;63444;48.148;11.542;2023-02-10T04:21:30;19.50;;;12.47;;
45011;SDS011;63444;48.148;11.542;2023-02-10T04:23:55;15.23;;;12.20;;
45011;SDS011;63444;48.148;11.542;2023-02-10T04:26:22;16.83;;;12.73;;
45011;SDS011;63444;48.148;11.542;2023-02-10T04:28:47;14.87;;;12.00;;
45011;SDS011;63444;48.148;11.542;2023-02-10T04:31:13;17.37;;;11.57;;
45011;SDS011;63444;48.148;11.542;2023-02-10T04:33:39;16.63;;;12.47;;
45011;SDS011;63444;48.148;11.542;2023-02-10T04:36:05;16.73;;;11.67;;
45011;SDS011;63444;48.148;11.542;2023-02-10T04:38:31;17.03;;;11.33;;
45011;SDS011;63444;48.148;11.542;2023-02-10T04:40:57;17.50;;;11.90;;
45011;SDS011;63444;48.148;11.542;2023-02-10T04:43:22;15.50;;;11.17;;
45011;SDS011;63444;48.148;11.542;2023-02-10T04:45:49;14.33;;;10.40;;
45011;SDS011;63444;48.148;11.542;2023-02-10T04:48:15;16.13;;;11.20;;
45011;SDS011;63444;48.148;11.542;2023-02-10T04:50:41;14.40;;;11.17;;
45011;SDS011;63444;48.148;11.542;2023-02-10T04:53:07;18.47;;;10.87;;
45011;SDS011;63444;48.148;11.542;2023-02-10T04:55:33;14.93;;;11.03;;
45011;SDS011;63444;48.148;11.542;2023-02-10T04:57:59;18.03;;;11.60;;
45011;SDS011;63444;48.148;11.542;2023-02-10T05:00:26;13.73;;;9.97;;
45011;SDS011;63444;48.148;11.542;2023-02-10T05:02:52;14.90;;;10.40;;
45011;SDS011;63444;48.148;11.542;2023-02-10T05:05:18;14.97;;;10.83;;
45011;SDS011;63444;48.148;11.542;2023-02-10T05:07:44;13.10;;;9.60;;
45011;SDS011;63444;48.148;11.542;2023-02-10T05:10:10;13.03;;;9.87;;
45011;SDS011;63444;48.148;11.542;2023-02-10T05:12:35;13.40;;;10.17;;
45011;SDS011;63444;48.148;11.542;2023-02-10T05:15:01;13.47;;;9.43;;
45011;SDS011;63444;48.148;11.542;2023-02-10T05:17:27;12.57;;;9.50;;
45011;SDS011;63444;48.148;11.542;2023-02-10T05:19:52;13.17;;;9.30;;
45011;SDS011;63444;48.148;11.542;2023-02-10T05:22:18;12.43;;;9.53;;
45011;SDS011;63444;48.148;11.542;2023-02-10T05:24:43;12.23;;;9.47;;
45011;SDS011;63444;48.148;11.542;2023-02-10T05:27:09;15.97;;;9.50;;
45011;SDS011;63444;48.148;11.542;2023-02-10T05:29:34;13.60;;;8.90;;
45011;SDS011;63444;48.148;11.542;2023-02-10T05:32:00;12.53;;;9.50;;
45011;SDS011;63444;48.148;11.542;2023-02-10T05:34:26;14.00;;;9.40;;
45011;SDS011;63444;48.148;11.542;2023-02-10T05:36:52;14.17;;;10.07;;
45011;SDS011;63444;48.148;11.542;2023-02-10T05:39:18;13.47;;;9.70;;
45011;SDS011;63444;48.148;11.542;2023-02-10T05:41:50;12.80;;;8.73;;
45011;SDS011;63444;48.148;11.542;2023-02-10T05:44:16;13.17;;;9.47;;
45011;SDS011;63444;48.148;11.542;2023-02-10T05:46:42;14.07;;;9.83;;
45011;SDS011;63444;48.148;11.542;2023-02-10T05:49:08;11.30;;;8.80;;
45011;SDS011;63444;48.148;11.542;2023-02-10T05:51:33;11.10;;;8.30;;
45011;SDS011;63444;48.148;11.542;2023-02-10T05:53:59;13.80;;;9.70;;
45011;SDS011;63444;48.148;11.542;2023-02-10T05:56:24;13.10;;;9.07;;
45011;SDS011;63444;48.148;11.542;2023-02-10T05:58:51;13.87;;;9.60;;
45011;SDS011;63444;48.148;11.542;2023-02-10T06:01:17;13.47;;;9.83;;
45011;SDS011;63444;48.148;11.542;2023-02-10T06:03:42;13.03;;;9.03;;
45011;SDS011;63444;48.148;11.542;2023-02-10T06:06:08;13.80;;;9.80;;
45011;SDS011;63444;48.148;11.542;2023-02-10T06:08:34;13.70;;;9.37;;
45011;SDS011;63444;48.148;11.542;2023-02-10T06:10:59;13.60;;;9.27;;
45011;SDS011;63444;48.148;11.542;2023-02-10T06:13:25;13.40;;;8.97;;
45011;SDS011;63444;48.148;11.542;2023-02-10T06:15:50;12.67;;;8.93;;
45011;SDS011;63444;48.148;11.542;2023-02-10T06:18:16;11.90;;;8.70;;
45011;SDS011;63444;48.148;11.542;2023-02-10T06:20:41;14.27;;;9.77;;
45011;SDS011;63444;48.148;11.542;2023-02-10T06:23:10;12.70;;;9.10;;
45011;SDS011;63444;48.148;11.542;2023-02-10T06:25:36;10.60;;;8.60;;
45011;SDS011;63444;48.148;11.542;2023-02-10T06:28:02;14.07;;;9.70;;
45011;SDS011;63444;48.148;11.542;2023-02-10T06:30:28;13.17;;;9.23;;
45011;SDS011;63444;48.148;11.542;2023-02-10T06:32:54;15.53;;;9.70;;
45011;SDS011;63444;48.148;11.542;2023-02-10T06:35:19;12.17;;;8.93;;
45011;SDS011;63444;48.148;11.542;2023-02-10T06:37:45;16.20;;;9.00;;
45011;SDS011;63444;48.148;11.542;2023-02-10T06:40:10;12.60;;;8.77;;
45011;SDS011;63444;48.148;11.542;2023-02-10T06:42:37;13.03;;;8.67;;
45011;SDS011;63444;48.148;11.542;2023-02-10T06:45:03;13.33;;;8.50;;
45011;SDS011;63444;48.148;11.542;2023-02-10T06:47:29;12.27;;;8.47;;
45011;SDS011;63444;48.148;11.542;2023-02-10T06:49:54;14.80;;;8.87;;
45011;SDS011;63444;48.148;11.542;2023-02-10T06:52:20;12.60;;;8.80;;
45011;SDS011;63444;48.148;11.542;2023-02-10T06:54:47;9.50;;;8.10;;
45011;SDS011;63444;48.148;11.542;2023-02-10T06:57:13;11.03;;;8.37;;
45011;SDS011;63444;48.148;11.542;2023-02-10T06:59:38;11.87;;;9.30;;
45011;SDS011;63444;48.148;11.542;2023-02-10T07:02:04;12.57;;;8.90;;
45011;SDS011;63444;48.148;11.542;2023-02-10T07:04:30;14.83;;;9.83;;
45011;SDS011;63444;48.148;11.542;2023-02-10T07:06:59;13.27;;;9.10;;
45011;SDS011;63444;48.148;11.542;2023-02-10T07:09:25;14.53;;;9.43;;
45011;SDS011;63444;48.148;11.542;2023-02-10T07:11:51;12.80;;;9.47;;
45011;SDS011;63444;48.148;11.542;2023-02-10T07:14:16;13.13;;;9.07;;
45011;SDS011;63444;48.148;11.542;2023-02-10T07:16:42;14.33;;;9.03;;
45011;SDS011;63444;48.148;11.542;2023-02-10T07:19:08;14.83;;;9.30;;
45011;SDS011;63444;48.148;11.542;2023-02-10T07:21:34;13.00;;;9.00;;
45011;SDS011;63444;48.148;11.542;2023-02-10T07:23:59;16.57;;;9.30;;
45011;SDS011;63444;48.148;11.542;2023-02-10T07:26:28;13.00;;;9.23;;
45011;SDS011;63444;48.148;11.542;2023-02-10T07:28:53;11.47;;;8.73;;
45011;SDS011;63444;48.148;11.542;2023-02-10T07:31:19;14.57;;;8.53;;
45011;SDS011;63444;48.148;11.542;2023-02-10T07:33:45;13.90;;;9.63;;
45011;SDS011;63444;48.148;11.542;2023-02-10T07:36:11;12.73;;;8.83;;
45011;SDS011;63444;48.148;11.542;2023-02-10T07:38:36;13.53;;;9.50;;
45011;SDS011;63444;48.148;11.542;2023-02-10T07:41:03;11.83;;;8.47;;
45011;SDS011;63444;48.148;11.542;2023-02-10T07:43:30;12.93;;;8.73;;
45011;SDS011;63444;48.148;11.542;2023-02-10T07:45:56;14.00;;;8.13;;
45011;SDS011;63444;48.148;11.542;2023-02-10T07:48:22;9.43;;;7.60;;
45011;SDS011;63444;48.148;11.542;2023-02-10T07:50:47;12.00;;;8.17;;
45011;SDS011;63444;48.148;11.542;2023-02-10T07:53:15;9.30;;;7.23;;
45011;SDS011;63444;48.148;11.542;2023-02-10T07:55:41;11.00;;;8.13;;
45011;SDS011;63444;48.148;11.542;2023-02-10T07:58:08;9.87;;;7.30;;
45011;SDS011;63444;48.148;11.542;2023-02-10T08:00:34;14.20;;;8.07;;
45011;SDS011;63444;48.148;11.542;2023-02-10T08:03:00;11.00;;;8.10;;
45011;SDS011;63444;48.148;11.542;2023-02-10T08:05:25;12.87;;;7.43;;
45011;SDS011;63444;48.148;11.542;2023-02-10T08:07:53;11.90;;;8.13;;
45011;SDS011;63444;48.148;11.542;2023-02-10T08:10:19;11.67;;;8.30;;
45011;SDS011;63444;48.148;11.542;2023-02-10T08:12:45;13.27;;;8.87;;
45011;SDS011;63444;48.148;11.542;2023-02-10T08:15:11;13.47;;;8.47;;
45011;SDS011;63444;48.148;11.542;2023-02-10T08:17:38;16.70;;;9.17;;
45011;SDS011;63444;48.148;11.542;2023-02-10T08:20:04;13.03;;;8.43;;
45011;SDS011;63444;48.148;11.542;2023-02-10T08:22:31;12.97;;;8.87;;
45011;SDS011;63444;48.148;11.542;2023-02-10T08:24:56;13.17;;;9.40;;
45011;SDS011;63444;48.148;11.542;2023-02-10T08:27:22;13.53;;;9.03;;
45011;SDS011;63444;48.148;11.542;2023-02-10T08:29:47;16.50;;;9.37;;
45011;SDS011;63444;48.148;11.542;2023-02-10T08:32:13;12.17;;;8.97;;
45011;SDS011;63444;48.148;11.542;2023-02-10T08:34:44;14.07;;;9.50;;
45011;SDS011;63444;48.148;11.542;2023-02-10T08:37:10;14.57;;;9.17;;
45011;SDS011;63444;48.148;11.542;2023-02-10T08:39:36;14.23;;;9.63;;
45011;SDS011;63444;48.148;11.542;2023-02-10T08:42:02;14.20;;;9.70;;
45011;SDS011;63444;48.148;11.542;2023-02-10T08:44:27;13.10;;;9.60;;
45011;SDS011;63444;48.148;11.542;2023-02-10T08:46:53;14.93;;;9.47;;
45011;SDS011;63444;48.148;11.542;2023-02-10T08:49:19;13.23;;;9.57;;
45011;SDS011;63444;48.148;11.542;2023-02-10T08:51:44;12.03;;;9.27;;
45011;SDS011;63444;48.148;11.542;2023-02-10T08:54:10;14.33;;;9.93;;
45011;SDS011;63444;48.148;11.542;2023-02-10T08:56:36;15.17;;;10.27;;
45011;SDS011;63444;48.148;11.542;2023-02-10T08:59:02;16.07;;;9.73;;
45011;SDS011;63444;48.148;11.542;2023-02-10T09:01:27;15.20;;;10.10;;
45011;SDS011;63444;48.148;11.542;2023-02-10T09:03:53;16.00;;;10.63;;
45011;SDS011;63444;48.148;11.542;2023-02-10T09:06:21;17.07;;;11.30;;
45011;SDS011;63444;48.148;11.542;2023-02-10T09:08:50;15.37;;;11.57;;
45011;SDS011;63444;48.148;11.542;2023-02-10T09:11:18;15.97;;;10.60;;
45011;SDS011;63444;48.148;11.542;2023-02-10T09:13:46;16.33;;;11.30;;
45011;SDS011;63444;48.148;11.542;2023-02-10T09:16:12;16.10;;;10.87;;
45011;SDS011;63444;48.148;11.542;2023-02-10T09:18:37;19.07;;;12.70;;
45011;SDS011;63444;48.148;11.542;2023-02-10T09:21:03;17.80;;;11.90;;
45011;SDS011;63444;48.148;11.542;2023-02-10T09:23:29;17.80;;;12.60;;
45011;SDS011;63444;48.148;11.542;2023-02-10T09:25:58;20.53;;;13.80;;
45011;SDS011;63444;48.148;11.542;2023-02-10T09:28:25;24.67;;;15.63;;
45011;SDS011;63444;48.148;11.542;2023-02-10T09:30:51;22.27;;;14.93;;
45011;SDS011;63444;48.148;11.542;2023-02-10T09:33:17;21.93;;;14.93;;
45011;SDS011;63444;48.148;11.542;2023-02-10T09:35:43;23.17;;;15.63;;
45011;SDS011;63444;48.148;11.542;2023-02-10T09:38:10;26.90;;;15.50;;
45011;SDS011;63444;48.148;11.542;2023-02-10T09:49:11;22.57;;;15.30;;
45011;SDS011;63444;48.148;11.542;2023-02-10T09:54:44;23.80;;;16.47;;
45011;SDS011;63444;48.148;11.542;2023-02-10T10:00:15;18.60;;;15.27;;
45011;SDS011;63444;48.148;11.542;2023-02-10T10:02:58;23.67;;;16.20;;
45011;SDS011;63444;48.148;11.542;2023-02-10T10:08:42;27.13;;;17.37;;
45011;SDS011;63444;48.148;11.542;2023-02-10T10:11:13;22.53;;;16.70;;
45011;SDS011;63444;48.148;11.542;2023-02-10T10:13:48;25.10;;;18.07;;
45011;SDS011;63444;48.148;11.542;2023-02-10T10:27:28;22.83;;;18.40;;
45011;SDS011;63444;48.148;11.542;2023-02-10T10:30:07;22.80;;;17.13;;
45011;SDS011;63444;48.148;11.542;2023-02-10T10:32:43;18.47;;;16.47;;
45011;SDS011;63444;48.148;11.542;2023-02-10T10:35:15;23.67;;;18.50;;
45011;SDS011;63444;48.148;11.542;2023-02-10T10:37:43;21.93;;;18.23;;
45011;SDS011;63444;48.148;11.542;2023-02-10T10:40:13;22.83;;;18.70;;
45011;SDS011;63444;48.148;11.542;2023-02-10T10:42:46;24.53;;;18.27;;
45011;SDS011;63444;48.148;11.542;2023-02-10T10:45:16;20.93;;;17.93;;
45011;SDS011;63444;48.148;11.542;2023-02-10T10:50:25;21.47;;;17.53;;
45011;SDS011;63444;48.148;11.542;2023-02-10T10:52:53;21.47;;;16.90;;
45011;SDS011;63444;48.148;11.542;2023-02-10T10:58:04;22.33;;;16.87;;
45011;SDS011;63444;48.148;11.542;2023-02-10T11:00:56;20.90;;;17.33;;
45011;SDS011;63444;48.148;11.542;2023-02-10T11:03:23;20.67;;;17.83;;
45011;SDS011;63444;48.148;11.542;2023-02-10T11:05:59;24.23;;;17.40;;
45011;SDS011;63444;48.148;11.542;2023-02-10T11:08:29;21.48;;;18.48;;
45011;SDS011;63444;48.148;11.542;2023-02-10T11:10:58;19.40;;;17.30;;
45011;SDS011;63444;48.148;11.542;2023-02-10T11:13:27;17.70;;;15.90;;
45011;SDS011;63444;48.148;11.542;2023-02-10T11:16:12;20.20;;;16.10;;
45011;SDS011;63444;48.148;11.542;2023-02-10T11:18:49;18.15;;;15.77;;
45011;SDS011;63444;48.148;11.542;2023-02-10T11:21:19;17.60;;;15.82;;
45011;SDS011;63444;48.148;11.542;2023-02-10T11:23:49;17.25;;;14.93;;
45011;SDS011;63444;48.148;11.542;2023-02-10T11:26:21;16.23;;;14.52;;
45011;SDS011;63444;48.148;11.542;2023-02-10T11:28:48;17.77;;;15.88;;
45011;SDS011;63444;48.148;11.542;2023-02-10T11:34:00;15.48;;;13.88;;
45011;SDS011;63444;48.148;11.542;2023-02-10T11:36:33;17.95;;;14.93;;
45011;SDS011;63444;48.148;11.542;2023-02-10T11:39:05;16.35;;;13.45;;
45011;SDS011;63444;48.148;11.542;2023-02-10T11:41:40;14.65;;;13.20;;
45011;SDS011;63444;48.148;11.542;2023-02-10T11:44:14;14.73;;;13.32;;
45011;SDS011;63444;48.148;11.542;2023-02-10T11:46:54;15.63;;;13.98;;
45011;SDS011;63444;48.148;11.542;2023-02-10T11:49:22;15.40;;;13.13;;
45011;SDS011;63444;48.148;11.542;2023-02-10T11:51:51;15.43;;;13.93;;
45011;SDS011;63444;48.148;11.542;2023-02-10T11:54:18;15.45;;;12.65;;
45011;SDS011;63444;48.148;11.542;2023-02-10T11:56:46;15.02;;;13.68;;
45011;SDS011;63444;48.148;11.542;2023-02-10T11:59:51;15.55;;;13.95;;
45011;SDS011;63444;48.148;11.542;2023-02-10T12:02:53;15.90;;;14.25;;
45011;SDS011;63444;48.148;11.542;2023-02-10T12:11:08;18.50;;;14.32;;
45011;SDS011;63444;48.148;11.542;2023-02-10T12:16:41;17.53;;;15.13;;
45011;SDS011;63444;48.148;11.542;2023-02-10T12:19:26;17.60;;;15.27;;
45011;SDS011;63444;48.148;11.542;2023-02-10T12:22:29;19.13;;;14.80;;
45011;SDS011;63444;48.148;11.542;2023-02-10T12:25:20;17.00;;;15.00;;
45011;SDS011;63444;48.148;11.542;2023-02-10T12:33:16;18.37;;;14.03;;
45011;SDS011;63444;48.148;11.542;2023-02-10T12:36:14;17.53;;;13.83;;
45011;SDS011;63444;48.148;11.542;2023-02-10T12:41:35;17.90;;;14.73;;
45011;SDS011;63444;48.148;11.542;2023-02-10T12:45:02;18.37;;;14.40;;
45011;SDS011;63444;48.148;11.542;2023-02-10T12:56:05;16.47;;;13.30;;
45011;SDS011;63444;48.148;11.542;2023-02-10T12:58:38;17.23;;;14.50;;
45011;SDS011;63444;48.148;11.542;2023-02-10T13:03:43;23.70;;;15.57;;
45011;SDS011;63444;48.148;11.542;2023-02-10T13:06:19;18.30;;;14.00;;
45011;SDS011;63444;48.148;11.542;2023-02-10T13:08:58;17.60;;;14.30;;
45011;SDS011;63444;48.148;11.542;2023-02-10T13:14:27;18.53;;;13.83;;
45011;SDS011;63444;48.148;11.542;2023-02-10T13:16:55;16.00;;;13.03;;
45011;SDS011;63444;48.148;11.542;2023-02-10T13:19:25;17.83;;;13.67;;
45011;SDS011;63444;48.148;11.542;2023-02-10T13:22:25;16.00;;;13.30;;
45011;SDS011;63444;48.148;11.542;2023-02-10T13:31:16;16.67;;;13.10;;
45011;SDS011;63444;48.148;11.542;2023-02-10T13:33:59;14.57;;;11.43;;
45011;SDS011;63444;48.148;11.542;2023-02-10T13:36:42;15.07;;;12.10;;
45011;SDS011;63444;48.148;11.542;2023-02-10T13:41:39;16.57;;;12.23;;
45011;SDS011;63444;48.148;11.542;2023-02-10T13:47:10;17.37;;;13.17;;
45011;SDS011;63444;48.148;11.542;2023-02-10T13:50:01;16.30;;;12.47;;
45011;SDS011;63444;48.148;11.542;2023-02-10T13:55:27;14.97;;;12.17;;
45011;SDS011;63444;48.148;11.542;2023-02-10T14:00:28;18.13;;;14.13;;
45011;SDS011;63444;48.148;11.542;2023-02-10T14:03:00;15.40;;;12.97;;
45011;SDS011;63444;48.148;11.542;2023-02-10T14:08:28;17.87;;;13.10;;
45011;SDS011;63444;48.148;11.542;2023-02-10T14:13:57;15.60;;;12.40;;
45011;SDS011;63444;48.148;11.542;2023-02-10T14:16:30;17.70;;;13.50;;
45011;SDS011;63444;48.148;11.542;2023-02-10T14:19:19;16.23;;;13.00;;
45011;SDS011;63444;48.148;11.542;2023-02-10T14:21:48;20.33;;;14.37;;
45011;SDS011;63444;48.148;11.542;2023-02-10T14:24:18;23.43;;;14.00;;
45011;SDS011;63444;48.148;11.542;2023-02-10T14:26:49;18.47;;;14.10;;
45011;SDS011;63444;48.148;11.542;2023-02-10T14:29:19;21.47;;;14.07;;
45011;SDS011;63444;48.148;11.542;2023-02-10T14:31:49;17.17;;;13.13;;
45011;SDS011;63444;48.148;11.542;2023-02-10T14:34:27;18.90;;;13.90;;
45011;SDS011;63444;48.148;11.542;2023-02-10T14:39:54;22.70;;;16.23;;
45011;SDS011;63444;48.148;11.542;2023-02-10T14:42:26;21.13;;;15.03;;
45011;SDS011;63444;48.148;11.542;2023-02-10T14:44:59;17.80;;;14.17;;
45011;SDS011;63444;48.148;11.542;2023-02-10T14:47:30;21.30;;;15.87;;
45011;SDS011;63444;48.148;11.542;2023-02-10T14:50:02;18.60;;;15.30;;
45011;SDS011;63444;48.148;11.542;2023-02-10T14:52:34;21.33;;;15.60;;
45011;SDS011;63444;48.148;11.542;2023-02-10T14:55:17;20.67;;;15.67;;
45011;SDS011;63444;48.148;11.542;2023-02-10T14:57:50;21.27;;;16.37;;
45011;SDS011;63444;48.148;11.542;2023-02-10T15:00:18;25.40;;;16.60;;
45011;SDS011;63444;48.148;11.542;2023-02-10T15:02:47;20.63;;;15.20;;
45011;SDS011;63444;48.148;11.542;2023-02-10T15:05:18;20.50;;;16.20;;
45011;SDS011;63444;48.148;11.542;2023-02-10T15:07:47;19.30;;;15.93;;
45011;SDS011;63444;48.148;11.542;2023-02-10T15:10:22;21.73;;;14.83;;
45011;SDS011;63444;48.148;11.542;2023-02-10T15:13:00;19.87;;;15.33;;
45011;SDS011;63444;48.148;11.542;2023-02-10T15:15:31;20.43;;;15.83;;
45011;SDS011;63444;48.148;11.542;2023-02-10T15:18:04;20.20;;;15.50;;
45011;SDS011;63444;48.148;11.542;2023-02-10T15:20:59;18.97;;;15.23;;
45011;SDS011;63444;48.148;11.542;2023-02-10T15:23:29;23.97;;;15.60;;
45011;SDS011;63444;48.148;11.542;2023-02-10T15:29:04;24.27;;;17.30;;
45011;SDS011;63444;48.148;11.542;2023-02-10T15:31:34;23.77;;;16.70;;
45011;SDS011;63444;48.148;11.542;2023-02-10T15:34:02;25.93;;;15.53;;
45011;SDS011;63444;48.148;11.542;2023-02-10T15:37:40;23.13;;;16.93;;
45011;SDS011;63444;48.148;11.542;2023-02-10T15:39:59;21.73;;;16.50;;
45011;SDS011;63444;48.148;11.542;2023-02-10T15:42:27;22.83;;;16.10;;
45011;SDS011;63444;48.148;11.542;2023-02-10T15:47:35;21.20;;;16.47;;
45011;SDS011;63444;48.148;11.542;2023-02-10T15:50:05;22.53;;;16.07;;
45011;SDS011;63444;48.148;11.542;2023-02-10T15:52:32;22.47;;;16.00;;
45011;SDS011;63444;48.148;11.542;2023-02-10T15:55:04;25.80;;;16.23;;
45011;SDS011;63444;48.148;11.542;2023-02-10T15:57:39;22.50;;;16.10;;
45011;SDS011;63444;48.148;11.542;2023-02-10T16:00:06;23.07;;;16.37;;
45011;SDS011;63444;48.148;11.542;2023-02-10T16:02:40;21.33;;;16.70;;
45011;SDS011;63444;48.148;11.542;2023-02-10T16:05:06;23.57;;;15.73;;
45011;SDS011;63444;48.148;11.542;2023-02-10T16:07:35;20.03;;;16.80;;
45011;SDS011;63444;48.148;11.542;2023-02-10T16:10:00;22.13;;;17.07;;
45011;SDS011;63444;48.148;11.542;2023-02-10T16:12:26;22.43;;;16.53;;
45011;SDS011;63444;48.148;11.542;2023-02-10T16:14:52;23.50;;;17.60;;
45011;SDS011;63444;48.148;11.542;2023-02-10T16:17:23;20.13;;;16.10;;
45011;SDS011;63444;48.148;11.542;2023-02-10T16:19:51;21.10;;;16.70;;
45011;SDS011;63444;48.148;11.542;2023-02-10T16:22:17;19.87;;;16.07;;
45011;SDS011;63444;48.148;11.542;2023-02-10T16:24:43;24.70;;;17.47;;
45011;SDS011;63444;48.148;11.542;2023-02-10T16:27:10;22.43;;;17.03;;